sensor_id;sensor_type;location;lat;lon;timestamp;pressure;altitude;pressure_sealevel;temperature;humidity
11339;BME280;5724;42.684;23.252;2023-12-28T00:00:49;95411.97;;;3.41;100.00
11339;BME280;5724;42.684;23.252;2023-12-28T00:03:15;95413.91;;;3.35;100.00
11339;BME280;5724;42.684;23.252;2023-12-28T00:05:40;95404.38;;;3.43;99.95
11339;BME280;5724;42.684;23.252;2023-12-28T00:08:06;95410.59;;;3.43;99.56
11339;BME280;5724;42.684;23.252;2023-12-28T00:10:31;95410.13;;;3.36;99.14
11339;BME280;5724;42.684;23.252;2023-12-28T00:12:57;95414.38;;;3.42;98.69
11339;BME280;5724;42.684;23.252;2023-12-28T00:15:23;95397.28;;;3.28;99.33
11339;BME280;5724;42.684;23.252;2023-12-28T00:17:48;95419.22;;;3.45;98.63
11339;BME280;5724;42.684;23.252;2023-12-28T00:20:14;95425.47;;;3.41;99.15
11339;BME280;5724;42.684;23.252;2023-12-28T00:22:39;95429.03;;;3.36;99.25
11339;BME280;5724;42.684;23.252;2023-12-28T00:25:05;95414.50;;;3.32;99.18
11339;BME280;5724;42.684;23.252;2023-12-28T00:27:31;95408.75;;;3.39;99.36
11339;BME280;5724;42.684;23.252;2023-12-28T00:29:59;95420.47;;;3.29;99.95
11339;BME280;5724;42.684;23.252;2023-12-28T00:32:25;95418.03;;;3.28;99.70
11339;BME280;5724;42.684;23.252;2023-12-28T00:34:50;95428.50;;;3.34;99.25
11339;BME280;5724;42.684;23.252;2023-12-28T00:37:16;95424.28;;;3.28;99.76
11339;BME280;5724;42.684;23.252;2023-12-28T00:39:41;95424.50;;;3.32;99.70
11339;BME280;5724;42.684;23.252;2023-12-28T00:42:07;95425.81;;;3.34;99.36
11339;BME280;5724;42.684;23.252;2023-12-28T00:44:32;95432.53;;;3.37;99.70
11339;BME280;5724;42.684;23.252;2023-12-28T00:46:58;95428.81;;;3.33;99.78
11339;BME280;5724;42.684;23.252;2023-12-28T00:49:23;95441.00;;;3.30;99.45
11339;BME280;5724;42.684;23.252;2023-12-28T00:51:49;95451.31;;;3.23;99.75
11339;BME280;5724;42.684;23.252;2023-12-28T00:54:14;95445.69;;;3.20;99.78
11339;BME280;5724;42.684;23.252;2023-12-28T00:56:40;95448.25;;;3.06;100.00
11339;BME280;5724;42.684;23.252;2023-12-28T00:59:05;95443.50;;;2.93;100.00
11339;BME280;5724;42.684;23.252;2023-12-28T01:01:30;95445.16;;;2.88;100.00
11339;BME280;5724;42.684;23.252;2023-12-28T01:03:56;95447.09;;;2.83;100.00
11339;BME280;5724;42.684;23.252;2023-12-28T01:06:22;95447.84;;;2.88;100.00
11339;BME280;5724;42.684;23.252;2023-12-28T01:08:47;95451.91;;;2.91;100.00
11339;BME280;5724;42.684;23.252;2023-12-28T01:11:13;95443.72;;;2.96;100.00
11339;BME280;5724;42.684;23.252;2023-12-28T01:13:38;95446.78;;;2.90;100.00
11339;BME280;5724;42.684;23.252;2023-12-28T01:16:04;95446.59;;;2.81;100.00
11339;BME280;5724;42.684;23.252;2023-12-28T01:18:30;95450.59;;;2.83;100.00
11339;BME280;5724;42.684;23.252;2023-12-28T01:20:55;95436.91;;;2.75;100.00
11339;BME280;5724;42.684;23.252;2023-12-28T01:23:20;95437.94;;;2.79;100.00
11339;BME280;5724;42.684;23.252;2023-12-28T01:25:46;95445.19;;;2.83;100.00
11339;BME280;5724;42.684;23.252;2023-12-28T01:28:12;95434.91;;;2.91;100.00
11339;BME280;5724;42.684;23.252;2023-12-28T01:30:37;95443.00;;;2.91;100.00
11339;BME280;5724;42.684;23.252;2023-12-28T01:33:04;95442.78;;;2.82;100.00
11339;BME280;5724;42.684;23.252;2023-12-28T01:35:29;95430.09;;;2.82;100.00
11339;BME280;5724;42.684;23.252;2023-12-28T01:37:55;95436.53;;;2.86;100.00
11339;BME280;5724;42.684;23.252;2023-12-28T01:40:21;95430.09;;;2.82;100.00
11339;BME280;5724;42.684;23.252;2023-12-28T01:42:46;95424.53;;;2.69;100.00
11339;BME280;5724;42.684;23.252;2023-12-28T01:45:12;95425.00;;;2.81;100.00
11339;BME280;5724;42.684;23.252;2023-12-28T01:47:37;95434.63;;;2.87;100.00
11339;BME280;5724;42.684;23.252;2023-12-28T01:50:05;95431.66;;;2.88;100.00
11339;BME280;5724;42.684;23.252;2023-12-28T01:52:31;95426.81;;;2.85;100.00
11339;BME280;5724;42.684;23.252;2023-12-28T01:54:57;95432.81;;;2.77;100.00
11339;BME280;5724;42.684;23.252;2023-12-28T01:57:23;95430.69;;;2.74;100.00
11339;BME280;5724;42.684;23.252;2023-12-28T01:59:48;95419.75;;;2.61;100.00
11339;BME280;5724;42.684;23.252;2023-12-28T02:02:14;95420.88;;;2.54;100.00
11339;BME280;5724;42.684;23.252;2023-12-28T02:04:40;95422.72;;;2.59;100.00
11339;BME280;5724;42.684;23.252;2023-12-28T02:07:06;95432.88;;;2.72;100.00
11339;BME280;5724;42.684;23.252;2023-12-28T02:09:32;95431.53;;;2.70;100.00
11339;BME280;5724;42.684;23.252;2023-12-28T02:11:57;95430.78;;;2.64;100.00
11339;BME280;5724;42.684;23.252;2023-12-28T02:14:23;95430.13;;;2.43;100.00
11339;BME280;5724;42.684;23.252;2023-12-28T02:19:55;95425.03;;;2.42;100.00
11339;BME280;5724;42.684;23.252;2023-12-28T02:22:24;95426.44;;;2.29;100.00
11339;BME280;5724;42.684;23.252;2023-12-28T02:27:33;95415.56;;;2.00;100.00
11339;BME280;5724;42.684;23.252;2023-12-28T02:29:59;95412.09;;;1.94;100.00
11339;BME280;5724;42.684;23.252;2023-12-28T02:32:36;95420.44;;;1.93;100.00
11339;BME280;5724;42.684;23.252;2023-12-28T02:35:16;95424.31;;;1.71;100.00
11339;BME280;5724;42.684;23.252;2023-12-28T02:37:44;95425.53;;;1.45;100.00
11339;BME280;5724;42.684;23.252;2023-12-28T02:40:14;95419.63;;;1.38;100.00
11339;BME280;5724;42.684;23.252;2023-12-28T02:42:41;95421.00;;;1.35;100.00
11339;BME280;5724;42.684;23.252;2023-12-28T02:45:07;95411.59;;;1.28;100.00
11339;BME280;5724;42.684;23.252;2023-12-28T02:47:32;95426.38;;;1.35;100.00
11339;BME280;5724;42.684;23.252;2023-12-28T02:49:58;95424.19;;;1.37;100.00
11339;BME280;5724;42.684;23.252;2023-12-28T02:52:24;95416.09;;;1.48;100.00
11339;BME280;5724;42.684;23.252;2023-12-28T02:54:50;95417.13;;;1.52;100.00
11339;BME280;5724;42.684;23.252;2023-12-28T02:57:15;95425.75;;;1.59;100.00
11339;BME280;5724;42.684;23.252;2023-12-28T02:59:45;95417.41;;;1.55;100.00
11339;BME280;5724;42.684;23.252;2023-12-28T03:02:10;95419.31;;;1.55;100.00
11339;BME280;5724;42.684;23.252;2023-12-28T03:04:36;95416.81;;;1.63;100.00
11339;BME280;5724;42.684;23.252;2023-12-28T03:07:01;95408.50;;;1.60;100.00
11339;BME280;5724;42.684;23.252;2023-12-28T03:09:27;95403.44;;;1.48;100.00
11339;BME280;5724;42.684;23.252;2023-12-28T03:11:52;95401.91;;;1.27;100.00
11339;BME280;5724;42.684;23.252;2023-12-28T03:14:18;95386.28;;;1.24;100.00
11339;BME280;5724;42.684;23.252;2023-12-28T03:16:43;95390.38;;;1.01;100.00
11339;BME280;5724;42.684;23.252;2023-12-28T03:19:09;95399.25;;;1.06;100.00
11339;BME280;5724;42.684;23.252;2023-12-28T03:21:39;95401.72;;;0.88;100.00
11339;BME280;5724;42.684;23.252;2023-12-28T03:24:05;95405.72;;;0.85;100.00
11339;BME280;5724;42.684;23.252;2023-12-28T03:26:30;95399.56;;;0.74;100.00
11339;BME280;5724;42.684;23.252;2023-12-28T03:28:56;95407.63;;;0.90;100.00
11339;BME280;5724;42.684;23.252;2023-12-28T03:31:21;95397.69;;;0.80;100.00
11339;BME280;5724;42.684;23.252;2023-12-28T03:33:47;95408.97;;;0.82;100.00
11339;BME280;5724;42.684;23.252;2023-12-28T03:36:19;95418.09;;;0.86;100.00
11339;BME280;5724;42.684;23.252;2023-12-28T03:38:45;95405.22;;;0.78;100.00
11339;BME280;5724;42.684;23.252;2023-12-28T03:41:19;95422.97;;;0.53;100.00
11339;BME280;5724;42.684;23.252;2023-12-28T03:43:48;95424.31;;;0.76;100.00
11339;BME280;5724;42.684;23.252;2023-12-28T03:46:14;95402.28;;;0.69;100.00
11339;BME280;5724;42.684;23.252;2023-12-28T03:48:39;95421.88;;;0.75;100.00
11339;BME280;5724;42.684;23.252;2023-12-28T03:51:05;95429.41;;;0.83;100.00
11339;BME280;5724;42.684;23.252;2023-12-28T03:53:31;95437.50;;;0.88;100.00
11339;BME280;5724;42.684;23.252;2023-12-28T03:55:58;95431.03;;;0.84;100.00
11339;BME280;5724;42.684;23.252;2023-12-28T03:58:23;95435.88;;;0.87;100.00
11339;BME280;5724;42.684;23.252;2023-12-28T04:00:49;95431.56;;;1.01;100.00
11339;BME280;5724;42.684;23.252;2023-12-28T04:03:14;95433.69;;;1.09;100.00
11339;BME280;5724;42.684;23.252;2023-12-28T04:05:40;95430.44;;;1.18;100.00
11339;BME280;5724;42.684;23.252;2023-12-28T04:08:06;95434.47;;;1.20;100.00
11339;BME280;5724;42.684;23.252;2023-12-28T04:10:33;95440.13;;;1.19;100.00
11339;BME280;5724;42.684;23.252;2023-12-28T04:12:59;95442.28;;;1.11;100.00
11339;BME280;5724;42.684;23.252;2023-12-28T04:15:28;95437.22;;;1.00;100.00
11339;BME280;5724;42.684;23.252;2023-12-28T04:17:53;95434.78;;;0.98;100.00
11339;BME280;5724;42.684;23.252;2023-12-28T04:20:19;95426.75;;;0.88;100.00
11339;BME280;5724;42.684;23.252;2023-12-28T04:22:44;95442.31;;;1.01;100.00
11339;BME280;5724;42.684;23.252;2023-12-28T04:25:10;95434.78;;;1.03;100.00
11339;BME280;5724;42.684;23.252;2023-12-28T04:27:37;95438.28;;;1.09;100.00
11339;BME280;5724;42.684;23.252;2023-12-28T04:30:02;95441.50;;;1.11;100.00
11339;BME280;5724;42.684;23.252;2023-12-28T04:32:33;95435.56;;;1.14;100.00
11339;BME280;5724;42.684;23.252;2023-12-28T04:34:58;95440.66;;;1.21;100.00
11339;BME280;5724;42.684;23.252;2023-12-28T04:37:24;95431.47;;;1.37;100.00
11339;BME280;5724;42.684;23.252;2023-12-28T04:39:52;95428.75;;;1.47;100.00
11339;BME280;5724;42.684;23.252;2023-12-28T04:42:18;95432.78;;;1.44;100.00
11339;BME280;5724;42.684;23.252;2023-12-28T04:44:44;95427.44;;;1.34;100.00
11339;BME280;5724;42.684;23.252;2023-12-28T04:47:09;95430.91;;;1.40;100.00
11339;BME280;5724;42.684;23.252;2023-12-28T04:49:35;95433.09;;;1.33;100.00
11339;BME280;5724;42.684;23.252;2023-12-28T04:52:00;95436.06;;;1.36;100.00
11339;BME280;5724;42.684;23.252;2023-12-28T04:54:26;95434.44;;;1.25;100.00
11339;BME280;5724;42.684;23.252;2023-12-28T04:56:52;95430.97;;;1.20;100.00
11339;BME280;5724;42.684;23.252;2023-12-28T04:59:18;95433.94;;;1.18;100.00
11339;BME280;5724;42.684;23.252;2023-12-28T05:01:44;95416.22;;;0.97;100.00
11339;BME280;5724;42.684;23.252;2023-12-28T05:04:10;95423.47;;;1.06;100.00
11339;BME280;5724;42.684;23.252;2023-12-28T05:06:36;95428.06;;;1.01;100.00
11339;BME280;5724;42.684;23.252;2023-12-28T05:09:02;95434.22;;;0.96;100.00
11339;BME280;5724;42.684;23.252;2023-12-28T05:11:28;95439.34;;;1.03;100.00
11339;BME280;5724;42.684;23.252;2023-12-28T05:13:53;95415.69;;;0.90;100.00
11339;BME280;5724;42.684;23.252;2023-12-28T05:16:19;95424.03;;;0.98;100.00
11339;BME280;5724;42.684;23.252;2023-12-28T05:18:45;95431.28;;;1.03;100.00
11339;BME280;5724;42.684;23.252;2023-12-28T05:21:12;95431.00;;;1.04;100.00
11339;BME280;5724;42.684;23.252;2023-12-28T05:23:38;95430.50;;;0.97;100.00
11339;BME280;5724;42.684;23.252;2023-12-28T05:26:04;95435.84;;;1.02;100.00
11339;BME280;5724;42.684;23.252;2023-12-28T05:28:30;95429.91;;;1.10;100.00
11339;BME280;5724;42.684;23.252;2023-12-28T05:30:55;95419.72;;;1.07;100.00
11339;BME280;5724;42.684;23.252;2023-12-28T05:33:21;95433.66;;;1.25;100.00
11339;BME280;5724;42.684;23.252;2023-12-28T05:35:48;95439.03;;;1.30;100.00
11339;BME280;5724;42.684;23.252;2023-12-28T05:38:18;95440.09;;;1.29;100.00
11339;BME280;5724;42.684;23.252;2023-12-28T05:40:44;95441.72;;;1.25;100.00
11339;BME280;5724;42.684;23.252;2023-12-28T05:43:13;95443.34;;;1.15;100.00
11339;BME280;5724;42.684;23.252;2023-12-28T05:45:38;95451.19;;;1.07;100.00
11339;BME280;5724;42.684;23.252;2023-12-28T05:48:04;95453.88;;;1.12;100.00
11339;BME280;5724;42.684;23.252;2023-12-28T05:50:29;95452.53;;;1.04;100.00
11339;BME280;5724;42.684;23.252;2023-12-28T05:52:56;95454.41;;;1.09;100.00
11339;BME280;5724;42.684;23.252;2023-12-28T05:55:21;95456.56;;;1.17;100.00
11339;BME280;5724;42.684;23.252;2023-12-28T05:57:47;95450.88;;;1.24;100.00
11339;BME280;5724;42.684;23.252;2023-12-28T06:00:13;95465.16;;;1.14;100.00
11339;BME280;5724;42.684;23.252;2023-12-28T06:02:40;95456.03;;;1.05;100.00
11339;BME280;5724;42.684;23.252;2023-12-28T06:05:06;95460.59;;;1.04;100.00
11339;BME280;5724;42.684;23.252;2023-12-28T06:07:31;95470.28;;;1.05;100.00
11339;BME280;5724;42.684;23.252;2023-12-28T06:09:57;95462.22;;;1.00;100.00
11339;BME280;5724;42.684;23.252;2023-12-28T06:12:23;95460.59;;;1.04;100.00
11339;BME280;5724;42.684;23.252;2023-12-28T06:14:48;95461.66;;;1.13;100.00
11339;BME280;5724;42.684;23.252;2023-12-28T06:17:14;95464.09;;;1.05;100.00
11339;BME280;5724;42.684;23.252;2023-12-28T06:19:41;95438.56;;;0.82;100.00
11339;BME280;5724;42.684;23.252;2023-12-28T06:22:06;95462.75;;;1.18;100.00
11339;BME280;5724;42.684;23.252;2023-12-28T06:24:32;95450.41;;;1.06;100.00
11339;BME280;5724;42.684;23.252;2023-12-28T06:26:58;95468.13;;;1.18;100.00
11339;BME280;5724;42.684;23.252;2023-12-28T06:29:23;95463.81;;;1.11;100.00
11339;BME280;5724;42.684;23.252;2023-12-28T06:31:48;95468.09;;;1.23;100.00
11339;BME280;5724;42.684;23.252;2023-12-28T06:34:14;95470.81;;;1.23;100.00
11339;BME280;5724;42.684;23.252;2023-12-28T06:36:39;95471.88;;;1.37;100.00
11339;BME280;5724;42.684;23.252;2023-12-28T06:39:05;95479.44;;;1.20;100.00
11339;BME280;5724;42.684;23.252;2023-12-28T06:41:30;95476.44;;;1.36;100.00
11339;BME280;5724;42.684;23.252;2023-12-28T06:43:56;95476.72;;;1.30;100.00
11339;BME280;5724;42.684;23.252;2023-12-28T06:46:22;95465.66;;;1.47;100.00
11339;BME280;5724;42.684;23.252;2023-12-28T06:48:47;95480.97;;;1.56;100.00
11339;BME280;5724;42.684;23.252;2023-12-28T06:51:17;95477.69;;;1.75;100.00
11339;BME280;5724;42.684;23.252;2023-12-28T06:53:43;95471.75;;;1.72;100.00
11339;BME280;5724;42.684;23.252;2023-12-28T06:56:09;95479.28;;;1.70;100.00
11339;BME280;5724;42.684;23.252;2023-12-28T06:58:34;95472.81;;;1.71;100.00
11339;BME280;5724;42.684;23.252;2023-12-28T07:01:03;95479.28;;;1.76;100.00
11339;BME280;5724;42.684;23.252;2023-12-28T07:03:29;95489.50;;;1.79;100.00
11339;BME280;5724;42.684;23.252;2023-12-28T07:06:01;95485.97;;;1.93;100.00
11339;BME280;5724;42.684;23.252;2023-12-28T07:08:30;95487.00;;;1.97;100.00
11339;BME280;5724;42.684;23.252;2023-12-28T07:10:55;95487.72;;;2.18;100.00
11339;BME280;5724;42.684;23.252;2023-12-28T07:13:22;95494.13;;;2.27;100.00
11339;BME280;5724;42.684;23.252;2023-12-28T07:15:48;95494.75;;;2.14;100.00
11339;BME280;5724;42.684;23.252;2023-12-28T07:18:16;95490.06;;;2.30;100.00
11339;BME280;5724;42.684;23.252;2023-12-28T07:20:42;95497.00;;;2.46;100.00
11339;BME280;5724;42.684;23.252;2023-12-28T07:23:08;95487.22;;;2.55;100.00
11339;BME280;5724;42.684;23.252;2023-12-28T07:25:35;95489.06;;;2.60;100.00
11339;BME280;5724;42.684;23.252;2023-12-28T07:28:02;95487.78;;;2.92;100.00
11339;BME280;5724;42.684;23.252;2023-12-28T07:30:27;95491.09;;;2.78;100.00
11339;BME280;5724;42.684;23.252;2023-12-28T07:32:53;95398.00;;;2.13;100.00
11339;BME280;5724;42.684;23.252;2023-12-28T07:35:18;95494.13;;;3.06;100.00
11339;BME280;5724;42.684;23.252;2023-12-28T07:37:44;95491.16;;;3.07;100.00
11339;BME280;5724;42.684;23.252;2023-12-28T07:40:12;95494.94;;;3.35;100.00
11339;BME280;5724;42.684;23.252;2023-12-28T07:42:38;95501.84;;;3.23;100.00
11339;BME280;5724;42.684;23.252;2023-12-28T07:45:04;95505.22;;;3.38;100.00
11339;BME280;5724;42.684;23.252;2023-12-28T07:47:29;95490.03;;;3.66;100.00
11339;BME280;5724;42.684;23.252;2023-12-28T07:49:55;95495.06;;;3.78;100.00
11339;BME280;5724;42.684;23.252;2023-12-28T07:52:21;95507.19;;;4.05;99.12
11339;BME280;5724;42.684;23.252;2023-12-28T07:54:47;95471.63;;;3.92;97.75
11339;BME280;5724;42.684;23.252;2023-12-28T07:57:13;95514.91;;;4.16;98.05
11339;BME280;5724;42.684;23.252;2023-12-28T07:59:38;95513.50;;;4.19;98.21
11339;BME280;5724;42.684;23.252;2023-12-28T08:02:04;95516.97;;;4.00;97.42
11339;BME280;5724;42.684;23.252;2023-12-28T08:04:30;95505.00;;;3.83;97.97
11339;BME280;5724;42.684;23.252;2023-12-28T08:06:56;95504.34;;;4.15;97.40
11339;BME280;5724;42.684;23.252;2023-12-28T08:09:21;95498.63;;;4.40;97.54
11339;BME280;5724;42.684;23.252;2023-12-28T08:11:47;95495.69;;;4.37;95.96
11339;BME280;5724;42.684;23.252;2023-12-28T08:14:12;95498.56;;;4.45;96.07
11339;BME280;5724;42.684;23.252;2023-12-28T08:16:38;95495.63;;;4.60;95.85
11339;BME280;5724;42.684;23.252;2023-12-28T08:19:05;95479.91;;;4.63;96.00
11339;BME280;5724;42.684;23.252;2023-12-28T08:21:31;95494.63;;;4.75;96.51
11339;BME280;5724;42.684;23.252;2023-12-28T08:23:57;95489.34;;;4.84;94.89
11339;BME280;5724;42.684;23.252;2023-12-28T08:26:22;95488.78;;;5.01;95.05
11339;BME280;5724;42.684;23.252;2023-12-28T08:28:48;95491.22;;;5.02;94.97
11339;BME280;5724;42.684;23.252;2023-12-28T08:31:14;95485.69;;;4.94;94.30
11339;BME280;5724;42.684;23.252;2023-12-28T08:33:40;95499.88;;;4.67;95.09
11339;BME280;5724;42.684;23.252;2023-12-28T08:36:06;95476.84;;;4.69;95.60
11339;BME280;5724;42.684;23.252;2023-12-28T08:38:32;95494.13;;;4.73;95.98
11339;BME280;5724;42.684;23.252;2023-12-28T08:40:58;95488.09;;;4.95;94.86
11339;BME280;5724;42.684;23.252;2023-12-28T08:43:23;95485.78;;;5.21;94.50
11339;BME280;5724;42.684;23.252;2023-12-28T08:45:49;95492.22;;;5.39;92.87
11339;BME280;5724;42.684;23.252;2023-12-28T08:48:15;95483.78;;;5.27;93.90
11339;BME280;5724;42.684;23.252;2023-12-28T08:50:40;95480.91;;;5.04;93.23
11339;BME280;5724;42.684;23.252;2023-12-28T08:53:06;95473.00;;;5.54;92.70
11339;BME280;5724;42.684;23.252;2023-12-28T08:55:31;95468.38;;;5.55;92.09
11339;BME280;5724;42.684;23.252;2023-12-28T08:57:58;95462.50;;;5.94;90.74
11339;BME280;5724;42.684;23.252;2023-12-28T09:00:24;95467.41;;;6.19;90.24
11339;BME280;5724;42.684;23.252;2023-12-28T09:02:50;95473.63;;;6.34;88.97
11339;BME280;5724;42.684;23.252;2023-12-28T09:05:16;95473.03;;;6.23;87.68
11339;BME280;5724;42.684;23.252;2023-12-28T09:07:42;95474.34;;;6.25;87.87
11339;BME280;5724;42.684;23.252;2023-12-28T09:10:10;95451.28;;;6.37;87.00
11339;BME280;5724;42.684;23.252;2023-12-28T09:12:35;95459.66;;;6.40;83.94
11339;BME280;5724;42.684;23.252;2023-12-28T09:15:04;95460.88;;;6.70;83.60
11339;BME280;5724;42.684;23.252;2023-12-28T09:17:30;95458.66;;;6.95;81.84
11339;BME280;5724;42.684;23.252;2023-12-28T09:19:56;95448.38;;;7.05;81.87
11339;BME280;5724;42.684;23.252;2023-12-28T09:22:23;95446.38;;;7.20;81.39
11339;BME280;5724;42.684;23.252;2023-12-28T09:24:49;95433.84;;;7.10;80.65
11339;BME280;5724;42.684;23.252;2023-12-28T09:27:15;95440.91;;;7.42;80.41
11339;BME280;5724;42.684;23.252;2023-12-28T09:29:41;95432.53;;;7.61;79.07
11339;BME280;5724;42.684;23.252;2023-12-28T09:32:06;95430.66;;;7.70;79.00
11339;BME280;5724;42.684;23.252;2023-12-28T09:34:32;95424.75;;;7.37;78.31
11339;BME280;5724;42.684;23.252;2023-12-28T09:36:59;95415.84;;;7.45;78.45
11339;BME280;5724;42.684;23.252;2023-12-28T09:39:25;95423.94;;;7.14;79.55
11339;BME280;5724;42.684;23.252;2023-12-28T09:42:04;95411.47;;;7.13;79.30
11339;BME280;5724;42.684;23.252;2023-12-28T09:44:31;95404.22;;;7.00;79.82
11339;BME280;5724;42.684;23.252;2023-12-28T09:46:57;95405.22;;;7.35;79.80
11339;BME280;5724;42.684;23.252;2023-12-28T09:49:23;95405.00;;;7.54;78.22
11339;BME280;5724;42.684;23.252;2023-12-28T09:51:49;95394.34;;;7.35;78.92
11339;BME280;5724;42.684;23.252;2023-12-28T09:54:15;95390.84;;;7.34;78.93
11339;BME280;5724;42.684;23.252;2023-12-28T09:56:41;95382.59;;;6.95;80.41
11339;BME280;5724;42.684;23.252;2023-12-28T09:59:07;95380.22;;;7.24;80.18
11339;BME280;5724;42.684;23.252;2023-12-28T10:01:34;95375.69;;;7.51;79.57
11339;BME280;5724;42.684;23.252;2023-12-28T10:04:00;95380.00;;;7.91;78.64
11339;BME280;5724;42.684;23.252;2023-12-28T10:06:29;95373.34;;;8.23;77.32
11339;BME280;5724;42.684;23.252;2023-12-28T10:08:55;95360.41;;;8.46;77.17
11339;BME280;5724;42.684;23.252;2023-12-28T10:11:21;95368.44;;;8.69;75.52
11339;BME280;5724;42.684;23.252;2023-12-28T10:13:48;95356.09;;;8.63;74.50
11339;BME280;5724;42.684;23.252;2023-12-28T10:16:16;95357.78;;;9.02;73.43
11339;BME280;5724;42.684;23.252;2023-12-28T10:18:43;95352.44;;;9.31;72.53
11339;BME280;5724;42.684;23.252;2023-12-28T10:21:09;95333.91;;;9.45;71.50
11339;BME280;5724;42.684;23.252;2023-12-28T10:23:35;95337.88;;;9.65;70.31
11339;BME280;5724;42.684;23.252;2023-12-28T10:26:04;95337.00;;;9.73;69.72
11339;BME280;5724;42.684;23.252;2023-12-28T10:28:34;95316.97;;;9.69;67.53
11339;BME280;5724;42.684;23.252;2023-12-28T10:30:59;95322.84;;;9.80;67.46
11339;BME280;5724;42.684;23.252;2023-12-28T10:33:26;95304.75;;;9.75;67.06
11339;BME280;5724;42.684;23.252;2023-12-28T10:35:52;95312.56;;;10.07;66.92
11339;BME280;5724;42.684;23.252;2023-12-28T10:38:20;95309.44;;;9.96;66.66
11339;BME280;5724;42.684;23.252;2023-12-28T10:40:48;95298.69;;;9.91;66.74
11339;BME280;5724;42.684;23.252;2023-12-28T10:43:16;95295.31;;;9.94;66.46
11339;BME280;5724;42.684;23.252;2023-12-28T10:45:46;95293.97;;;10.00;65.85
11339;BME280;5724;42.684;23.252;2023-12-28T10:48:13;95281.00;;;9.97;65.72
11339;BME280;5724;42.684;23.252;2023-12-28T10:50:45;95283.50;;;9.81;66.39
11339;BME280;5724;42.684;23.252;2023-12-28T10:53:26;95284.13;;;9.57;66.37
11339;BME280;5724;42.684;23.252;2023-12-28T11:01:40;95269.00;;;9.89;64.92
11339;BME280;5724;42.684;23.252;2023-12-28T11:04:37;95258.88;;;9.39;66.50
11339;BME280;5724;42.684;23.252;2023-12-28T11:07:05;95262.44;;;9.61;66.64
11339;BME280;5724;42.684;23.252;2023-12-28T11:09:34;95260.31;;;9.96;65.45
11339;BME280;5724;42.684;23.252;2023-12-28T11:12:00;95258.25;;;10.14;65.02
11339;BME280;5724;42.684;23.252;2023-12-28T11:14:28;95253.66;;;10.26;63.87
11339;BME280;5724;42.684;23.252;2023-12-28T11:16:54;95252.97;;;10.50;63.82
11339;BME280;5724;42.684;23.252;2023-12-28T11:19:21;95247.66;;;10.66;62.84
11339;BME280;5724;42.684;23.252;2023-12-28T11:21:49;95252.25;;;10.74;61.72
11339;BME280;5724;42.684;23.252;2023-12-28T11:24:16;95239.78;;;10.31;62.26
11339;BME280;5724;42.684;23.252;2023-12-28T11:26:42;95237.78;;;10.20;62.86
11339;BME280;5724;42.684;23.252;2023-12-28T11:29:08;95228.19;;;9.93;64.22
11339;BME280;5724;42.684;23.252;2023-12-28T11:31:35;95229.59;;;10.20;63.82
11339;BME280;5724;42.684;23.252;2023-12-28T11:34:04;95220.22;;;10.29;63.49
11339;BME280;5724;42.684;23.252;2023-12-28T11:36:36;95210.88;;;10.30;64.00
11339;BME280;5724;42.684;23.252;2023-12-28T11:39:06;95212.03;;;10.63;63.33
11339;BME280;5724;42.684;23.252;2023-12-28T11:41:42;95211.94;;;10.71;62.73
11339;BME280;5724;42.684;23.252;2023-12-28T11:44:07;95210.28;;;10.91;62.47
11339;BME280;5724;42.684;23.252;2023-12-28T11:46:35;95214.59;;;11.04;61.99
11339;BME280;5724;42.684;23.252;2023-12-28T11:49:05;95214.84;;;11.24;61.55
11339;BME280;5724;42.684;23.252;2023-12-28T11:51:32;95199.00;;;11.41;60.35
11339;BME280;5724;42.684;23.252;2023-12-28T11:53:58;95198.78;;;11.59;60.36
11339;BME280;5724;42.684;23.252;2023-12-28T11:56:25;95190.66;;;11.62;60.10
11339;BME280;5724;42.684;23.252;2023-12-28T11:58:51;95206.97;;;11.59;59.26
11339;BME280;5724;42.684;23.252;2023-12-28T12:01:16;95203.34;;;11.42;59.99
11339;BME280;5724;42.684;23.252;2023-12-28T12:03:42;95205.81;;;11.47;59.59
11339;BME280;5724;42.684;23.252;2023-12-28T12:06:08;95197.63;;;11.47;59.90
11339;BME280;5724;42.684;23.252;2023-12-28T12:08:33;95192.63;;;11.25;60.56
11339;BME280;5724;42.684;23.252;2023-12-28T12:11:04;95185.78;;;11.31;60.68
11339;BME280;5724;42.684;23.252;2023-12-28T12:13:31;95185.31;;;11.54;60.15
11339;BME280;5724;42.684;23.252;2023-12-28T12:15:58;95165.25;;;11.50;59.58
11339;BME280;5724;42.684;23.252;2023-12-28T12:18:25;95167.09;;;11.33;59.51
11339;BME280;5724;42.684;23.252;2023-12-28T12:20:51;95173.56;;;11.53;59.63
11339;BME280;5724;42.684;23.252;2023-12-28T12:23:18;95174.84;;;11.43;59.56
11339;BME280;5724;42.684;23.252;2023-12-28T12:25:43;95177.34;;;11.49;59.81
11339;BME280;5724;42.684;23.252;2023-12-28T12:28:11;95179.84;;;11.41;59.54
11339;BME280;5724;42.684;23.252;2023-12-28T12:30:36;95180.41;;;11.35;59.70
11339;BME280;5724;42.684;23.252;2023-12-28T12:33:02;95182.38;;;11.22;59.81
11339;BME280;5724;42.684;23.252;2023-12-28T12:35:28;95181.69;;;11.50;59.58
11339;BME280;5724;42.684;23.252;2023-12-28T12:37:54;95191.94;;;11.16;59.80
11339;BME280;5724;42.684;23.252;2023-12-28T12:40:20;95187.03;;;11.09;60.35
11339;BME280;5724;42.684;23.252;2023-12-28T12:42:56;95179.84;;;11.17;60.37
11339;BME280;5724;42.684;23.252;2023-12-28T12:45:24;95177.94;;;11.30;60.22
11339;BME280;5724;42.684;23.252;2023-12-28T12:47:51;95184.88;;;11.39;59.53
11339;BME280;5724;42.684;23.252;2023-12-28T12:50:17;95182.69;;;11.45;59.40
11339;BME280;5724;42.684;23.252;2023-12-28T12:52:42;95168.47;;;11.39;59.13
11339;BME280;5724;42.684;23.252;2023-12-28T12:55:15;95164.47;;;11.49;59.07
11339;BME280;5724;42.684;23.252;2023-12-28T12:57:41;95163.03;;;11.67;58.42
11339;BME280;5724;42.684;23.252;2023-12-28T13:00:09;95150.97;;;11.68;57.87
11339;BME280;5724;42.684;23.252;2023-12-28T13:02:37;95152.34;;;11.62;57.53
11339;BME280;5724;42.684;23.252;2023-12-28T13:05:04;95155.16;;;11.66;57.75
11339;BME280;5724;42.684;23.252;2023-12-28T13:07:33;95155.25;;;11.29;58.48
11339;BME280;5724;42.684;23.252;2023-12-28T13:09:59;95147.03;;;11.41;58.76